Latest Coastal Weather Observations for Hopetoun North

IDW60701

Issued at 2:12 pm WST Thursday 28 May 2015 (issued every 10 minutes, with the page automatically refreshed every 10 minutes)

About coastal observations | Map of coastal stations | Coastal observations for WA | Marine services | Other Formats
Station Details ID: 009961 Name: HOPETOUN NORTH Lat: -33.93 Lon: 120.13 Height: 26.0 m
Data from the previous 72 hours. | See also: Recent months at Hopetoun North
Date/Time
WST
Temp

°C
Wind Pressure Rain
since 9am
mm
Weather Cloud Vis
km
Sea
Height
m
Swell
Dir
 
Speed
knots
Gust
knots
hPa Trend Height
m
Period
s
Dir
28/02:00pm 12.7 SSW 5 8 1023.4 - 1.8 - - - - - - -
28/01:30pm 13.4 S 5 6 1023.3 - 1.8 - - - - - - -
28/01:00pm 13.1 SSW 9 15 1023.4 - 1.8 - - - - - - -
28/12:30pm 13.2 S 6 8 1023.5 - 1.8 - - - - - - -
28/12:00pm 12.3 SSW 8 11 1023.7 - 1.8 - - - - - - -
28/11:30am 12.4 S 4 9 1023.9 - 1.8 - - - - - - -
28/11:00am 12.1 SSW 4 7 1024.1 - 1.8 - - - - - - -
28/10:30am 11.5 WNW 3 5 1024.4 - 1.8 - - - - - - -
28/10:00am 11.1 NE 3 5 1024.2 - 1.8 - - - - - - -
28/09:30am 10.7 SSW 5 8 1024.3 - 1.0 - - - - - - -
28/09:00am 10.4 N 4 5 1023.8 - 10.4 Recent precip. - - - - - -
28/08:30am 10.3 E 3 7 1023.7 - 10.2 - - - - - - -
28/08:00am 9.8 NNW 4 7 1023.5 - 9.6 - - - - - - -
28/07:30am 10.3 S 3 7 1023.1 - 9.4 - - - - - - -
28/07:00am 9.9 SW 7 12 1022.9 - 9.0 - - - - - - -
28/06:30am 9.5 NNW 5 7 1022.5 - 9.0 - - - - - - -
28/06:00am 10.0 NNW 3 5 1022.3 - 9.0 Recent precip. - - - - - -
28/05:30am 10.1 WSW 3 6 1022.0 - 7.0 - - - - - - -
28/05:00am 9.4 NNW 5 8 1021.8 - 5.8 - - - - - - -
28/04:30am 10.4 SSW 5 9 1021.6 - 5.8 - - - - - - -
28/04:00am 10.2 SSW 9 14 1021.5 - 5.8 - - - - - - -
28/03:30am 10.2 WSW 6 9 1021.2 - 5.2 - - - - - - -
28/03:00am 10.7 WSW 6 10 1021.1 - 4.2 Rain - - - - - -
28/02:30am 10.5 SSW 11 15 1021.2 - 2.6 - - - - - - -
28/02:00am 10.8 WSW 5 9 1021.2 - 0.4 - - - - - - -
28/01:30am 11.3 SW 9 13 1021.1 - 0.0 - - - - - - -
28/01:00am 11.0 W 7 9 1021.0 - 0.0 - - - - - - -
28/12:30am 11.1 W 7 9 1021.0 - 0.0 - - - - - - -
28/12:00am 10.4 NW 5 7 1021.1 - 0.0 - - - - - - -
 
Date/Time
WST
Temp

°C
Wind Pressure Rain
since 9am
mm
Weather Cloud Vis
km
Sea
Height
m
Swell
Dir
 
Speed
knots
Gust
knots
hPa Trend Height
m
Period
s
Dir
27/11:30pm 10.7 WNW 5 8 1021.0 - 0.0 - - - - - - -
27/11:00pm 10.7 WNW 4 7 1021.0 - 0.0 - - - - - - -
27/10:30pm 10.3 NW 4 7 1020.9 - 0.0 - - - - - - -
27/10:00pm 10.3 NW 4 6 1020.9 - 0.0 - - - - - - -
27/09:30pm 10.4 NW 6 8 1020.9 - 0.0 - - - - - - -
27/09:00pm 9.9 NW 5 8 1020.7 - 0.0 - - - - - - -
27/08:30pm 9.0 NNW 5 7 1020.5 - 0.0 - - - - - - -
27/08:00pm 8.4 NNW 5 6 1020.3 - 0.0 - - - - - - -
27/07:30pm 8.6 NNW 4 5 1020.1 - 0.0 - - - - - - -
27/07:00pm 9.1 NNW 5 8 1020.0 - 0.0 - - - - - - -
27/06:30pm 9.8 NW 6 8 1019.8 - 0.0 - - - - - - -
27/06:00pm 9.4 NW 5 6 1019.7 - 0.0 - - - - - - -
27/05:30pm 10.3 NW 5 6 1019.5 - 0.0 - - - - - - -
27/05:00pm 11.8 WNW 5 8 1019.5 - 0.0 - - - - - - -
27/04:30pm 13.0 W 6 9 1019.4 - 0.0 - - - - - - -
27/04:00pm 13.6 WSW 9 14 1019.5 - 0.0 - - - - - - -
27/03:30pm 14.7 WSW 9 14 1019.5 - 0.0 - - - - - - -
27/03:00pm 14.2 WSW 10 15 1019.7 - 0.0 - - - - - - -
27/02:30pm 14.4 WSW 12 16 1019.7 - 0.0 - - - - - - -
27/02:00pm 14.2 WSW 12 16 1019.7 - 0.0 - - - - - - -
27/01:30pm 14.3 SW 11 16 1019.8 - 0.0 - - - - - - -
27/01:00pm 14.1 WSW 12 17 1020.0 - 0.0 - - - - - - -
27/12:30pm 14.4 WSW 11 16 1020.3 - 0.0 - - - - - - -
27/12:00pm 13.6 WSW 11 15 1020.9 - 0.0 - - - - - - -
27/11:30am 13.5 WSW 11 16 1021.3 - 0.0 - - - - - - -
27/11:00am 13.4 WSW 10 15 1021.6 - 0.0 - - - - - - -
27/10:30am 13.4 W 11 17 1022.0 - 0.0 - - - - - - -
27/10:00am 12.6 W 11 15 1022.1 - 0.0 - - - - - - -
27/09:30am 12.0 WSW 10 15 1022.3 - 0.0 - - - - - - -
27/09:00am 11.0 WNW 8 13 1022.2 - 0.0 - - - - - - -
27/08:30am 10.2 WNW 8 13 1022.2 - 0.0 - - - - - - -
27/08:00am 8.8 WNW 7 10 1022.2 - 0.0 - - - - - - -
27/07:30am 8.3 WNW 7 10 1022.1 - 0.0 - - - - - - -
27/07:00am 9.4 WNW 6 10 1021.9 - 0.0 - - - - - - -
27/06:30am 9.0 WSW 7 10 1021.8 - 0.0 - - - - - - -
27/06:00am 8.5 W 6 8 1021.6 - 0.0 - - - - - - -
27/05:30am 8.9 W 8 11 1021.4 - 0.0 - - - - - - -
27/05:00am 8.7 W 7 10 1021.4 - 0.0 - - - - - - -
27/04:30am 8.2 W 5 7 1021.1 - 0.0 - - - - - - -
27/04:00am 8.8 WNW 6 8 1021.2 - 0.0 - - - - - - -
27/03:30am 8.1 WNW 6 7 1021.1 - 0.0 - - - - - - -
27/03:00am 8.6 NW 5 7 1021.2 - 0.0 - - - - - - -
27/02:30am 9.9 NW 4 6 1021.3 - 0.0 - - - - - - -
27/02:00am 10.7 W 6 9 1021.3 - 0.0 - - - - - - -
27/01:30am 10.9 WNW 5 6 1021.5 - 0.0 - - - - - - -
27/01:00am 10.7 W 6 8 1021.7 - 0.0 - - - - - - -
27/12:30am 10.7 WNW 5 7 1021.9 - 0.0 - - - - - - -
27/12:00am 10.7 W 6 9 1022.1 - 0.0 - - - - - - -
 
Date/Time
WST
Temp

°C
Wind Pressure Rain
since 9am
mm
Weather Cloud Vis
km
Sea
Height
m
Swell
Dir
 
Speed
knots
Gust
knots
hPa Trend Height
m
Period
s
Dir
26/11:30pm 10.6 NW 4 6 1022.4 - 0.0 - - - - - - -
26/11:00pm 11.0 NNW 5 7 1022.7 - 0.0 - - - - - - -
26/10:30pm 11.7 NW 3 5 1022.7 - 0.0 - - - - - - -
26/10:00pm 12.2 WNW 4 6 1022.7 - 0.0 - - - - - - -
26/09:30pm 13.2 WSW 7 10 1022.7 - 0.0 - - - - - - -
26/09:00pm 13.2 WSW 6 8 1022.7 - 0.0 - - - - - - -
26/08:30pm 13.5 WSW 8 13 1022.6 - 0.0 - - - - - - -
26/08:00pm 13.6 SW 9 13 1022.5 - 0.0 - - - - - - -
26/07:30pm 13.2 SW 8 13 1022.4 - 0.0 - - - - - - -
26/07:00pm 13.1 SW 10 14 1022.1 - 0.0 - - - - - - -
26/06:30pm 12.0 SSW 5 7 1022.0 - 0.0 - - - - - - -
26/06:00pm 11.9 SSW 7 10 1021.9 - 0.0 - - - - - - -
26/05:30pm 12.5 SSW 9 13 1021.7 - 0.0 - - - - - - -
26/05:00pm 12.7 SSW 12 17 1021.5 - 0.0 - - - - - - -
26/04:30pm 13.6 SW 12 17 1021.4 - 0.0 - - - - - - -
26/04:00pm 13.6 SW 12 16 1021.4 - 0.0 - - - - - - -
26/03:30pm 13.6 SW 14 19 1021.2 - 0.0 - - - - - - -
26/03:00pm 13.5 SSW 16 23 1020.9 - 0.0 - - - - - - -
26/02:30pm 14.5 SW 15 19 1020.8 - 0.0 - - - - - - -
26/02:00pm 14.8 SW 13 18 1020.6 - 0.0 - - - - - - -
26/01:30pm 15.5 SW 12 20 1020.4 - 0.0 - - - - - - -
26/01:00pm 15.6 WSW 9 13 1020.7 - 0.0 - - - - - - -
26/12:30pm 16.9 W 10 15 1020.7 - 0.0 - - - - - - -
26/12:00pm 15.5 W 11 16 1020.9 - 0.0 - - - - - - -
26/11:30am 15.5 W 10 14 1021.2 - 0.0 - - - - - - -
26/11:00am 15.0 W 11 16 1021.4 - 0.0 - - - - - - -
26/10:30am 14.3 W 8 13 1021.5 - 0.0 - - - - - - -
26/10:00am 15.4 W 12 17 1021.5 - 0.0 - - - - - - -
26/09:30am 14.8 W 11 17 1021.3 - 0.0 - - - - - - -
26/09:00am 13.9 WNW 9 14 1021.0 - 0.2 - - - - - - -
26/08:30am 12.4 WNW 7 13 1020.9 - 0.2 - - - - - - -
26/08:00am 11.0 WNW 6 10 1021.0 - 0.2 - - - - - - -
26/07:30am 9.4 WNW 3 5 1020.8 - 0.2 - - - - - - -
26/07:00am 7.8 NW 2 5 1020.5 - 0.2 - - - - - - -
26/06:30am 8.1 N 2 4 1020.2 - 0.2 - - - - - - -
26/06:00am 9.2 NW 4 6 1019.9 - 0.0 - - - - - - -
26/05:30am 9.4 NW 4 7 1019.8 - 0.0 - - - - - - -
26/05:00am 9.1 NW 3 5 1019.6 - 0.0 - - - - - - -
26/04:30am 8.9 NNW 4 6 1019.5 - 0.0 - - - - - - -
26/04:00am 9.4 NNW 5 9 1019.5 - 0.0 - - - - - - -
26/03:30am 9.9 NW 6 9 1019.7 - 0.0 - - - - - - -
26/03:00am 9.0 NW 5 8 1019.5 - 0.0 - - - - - - -
26/02:30am 9.2 N 6 8 1019.5 - 0.0 - - - - - - -
26/02:00am 9.1 N 4 6 1019.6 - 0.0 - - - - - - -
26/01:30am 9.4 NNW 5 6 1019.7 - 0.0 - - - - - - -
26/01:00am 9.0 N 4 5 1019.7 - 0.0 - - - - - - -
26/12:30am 9.3 NNE 4 6 1019.8 - 0.0 - - - - - - -
26/12:00am 9.5 NNE 4 6 1019.9 - 0.0 - - - - - - -
 
Date/Time
WST
Temp

°C
Wind Pressure Rain
since 9am
mm
Weather Cloud Vis
km
Sea
Height
m
Swell
Dir
 
Speed
knots
Gust
knots
hPa Trend Height
m
Period
s
Dir
25/11:30pm 9.8 NNE 3 5 1020.2 - 0.0 - - - - - - -
25/11:00pm 10.4 N 4 5 1020.4 - 0.0 - - - - - - -
25/10:30pm 9.4 N 4 5 1020.5 - 0.0 - - - - - - -
25/10:00pm 9.9 NNE 3 4 1020.6 - 0.0 - - - - - - -
25/09:30pm 10.5 NNE 2 3 1020.7 - 0.0 - - - - - - -
25/09:00pm 10.6 N 3 5 1020.8 - 0.0 - - - - - - -
25/08:30pm 11.0 SSW 5 10 1020.7 - 0.0 - - - - - - -
25/08:00pm 11.1 N 5 6 1020.4 - 0.0 - - - - - - -
25/07:30pm 10.8 N 3 4 1020.3 - 0.0 - - - - - - -
25/07:00pm 11.2 NNE 4 5 1020.1 - 0.0 - - - - - - -
25/06:30pm 11.9 NE 4 4 1019.9 - 0.0 - - - - - - -
25/06:00pm 12.2 ENE 3 4 1019.9 - 0.0 - - - - - - -
25/05:30pm 13.3 ENE 5 6 1019.6 - 0.0 - - - - - - -
25/05:00pm 14.0 E 4 5 1019.5 - 0.0 - - - - - - -
25/04:30pm 14.8 ESE 4 6 1019.4 - 0.0 - - - - - - -
25/04:00pm 15.7 ESE 6 8 1019.4 - 0.0 - - - - - - -
25/03:30pm 16.1 SE 6 8 1019.3 - 0.0 - - - - - - -
25/03:00pm 16.7 SE 6 9 1019.2 - 0.0 - - - - - - -
25/02:30pm 16.6 S 6 8 1019.5 - 0.0 - - - - - - -

Other Formats:

Comma delimited format used in spreadsheet applications
http://www.bom.gov.au/fwo/IDW60701/IDW60701.95635.axf

JavaScript Object Notation format (JSON) in row-major order
http://www.bom.gov.au/fwo/IDW60701/IDW60701.95635.json